createdAt,value
2023-09-27T00:02:56.847Z,98.84
2023-09-27T00:06:00.418Z,98.58
2023-09-27T00:09:05.042Z,99.16
2023-09-27T00:12:08.152Z,99.37
2023-09-27T00:15:12.878Z,99.31
2023-09-27T00:18:16.180Z,99.03
2023-09-27T00:21:18.789Z,99.01
2023-09-27T00:24:21.752Z,99.24
2023-09-27T00:27:24.352Z,99.60
2023-09-27T00:30:27.520Z,99.23
2023-09-27T00:33:30.249Z,99.37
2023-09-27T00:36:34.280Z,99.44
2023-09-27T00:39:37.739Z,99.38
2023-09-27T00:42:40.567Z,99.72
2023-09-27T00:45:43.251Z,99.55
2023-09-27T00:48:46.892Z,99.99
2023-09-27T00:51:49.799Z,100.00
2023-09-27T00:54:53.622Z,100.00
2023-09-27T00:57:56.535Z,100.00
2023-09-27T01:01:00.894Z,100.00
2023-09-27T01:04:03.840Z,100.00
2023-09-27T01:07:08.573Z,100.00
2023-09-27T01:10:11.976Z,100.00
2023-09-27T01:13:15.121Z,100.00
2023-09-27T01:16:17.808Z,100.00
2023-09-27T01:19:20.836Z,100.00
2023-09-27T01:22:23.456Z,100.00
2023-09-27T01:25:34.408Z,100.00
2023-09-27T01:28:38.096Z,100.00
2023-09-27T01:31:41.250Z,100.00
2023-09-27T01:34:43.765Z,100.00
2023-09-27T01:37:46.931Z,100.00
2023-09-27T01:40:49.495Z,100.00
2023-09-27T01:43:52.369Z,100.00
2023-09-27T01:46:55.135Z,100.00
2023-09-27T01:49:58.970Z,100.00
2023-09-27T01:53:01.876Z,100.00
2023-09-27T01:56:05.287Z,100.00
2023-09-27T01:59:08.133Z,100.00
2023-09-27T02:02:11.076Z,100.00
2023-09-27T02:05:14.204Z,100.00
2023-09-27T02:08:17.748Z,100.00
2023-09-27T02:11:26.703Z,100.00
2023-09-27T02:14:29.609Z,100.00
2023-09-27T02:17:32.629Z,100.00
2023-09-27T02:20:35.699Z,100.00
2023-09-27T02:23:38.765Z,100.00
2023-09-27T02:26:41.630Z,100.00
2023-09-27T02:29:44.390Z,100.00
2023-09-27T02:32:47.500Z,100.00
2023-09-27T02:35:50.383Z,100.00
2023-09-27T02:38:53.675Z,100.00
2023-09-27T02:41:58.166Z,100.00
2023-09-27T02:45:01.222Z,100.00
2023-09-27T02:48:05.215Z,100.00
2023-09-27T02:51:08.355Z,100.00
2023-09-27T02:54:11.828Z,100.00
2023-09-27T02:57:15.062Z,100.00
2023-09-27T03:00:20.051Z,100.00
2023-09-27T03:03:22.972Z,100.00
2023-09-27T03:06:26.019Z,100.00
2023-09-27T03:09:28.950Z,100.00
2023-09-27T03:12:31.693Z,100.00
2023-09-27T03:15:35.655Z,100.00
2023-09-27T03:18:38.944Z,100.00
2023-09-27T03:21:42.115Z,100.00
2023-09-27T03:24:45.660Z,100.00
2023-09-27T03:27:48.948Z,100.00
2023-09-27T03:30:52.130Z,100.00
2023-09-27T03:33:55.385Z,100.00
2023-09-27T03:36:58.677Z,100.00
2023-09-27T03:40:02.777Z,100.00
2023-09-27T03:43:06.057Z,100.00
2023-09-27T03:46:09.093Z,100.00
2023-09-27T03:49:14.208Z,100.00
2023-09-27T03:52:17.143Z,100.00
2023-09-27T03:55:19.874Z,100.00
2023-09-27T03:58:22.869Z,100.00
2023-09-27T04:01:25.634Z,100.00
2023-09-27T04:04:28.616Z,100.00
2023-09-27T04:07:31.314Z,100.00
2023-09-27T04:10:35.173Z,100.00
2023-09-27T04:13:37.756Z,100.00
2023-09-27T04:16:40.825Z,100.00
2023-09-27T04:19:43.650Z,100.00
2023-09-27T04:22:48.744Z,100.00
2023-09-27T04:25:51.715Z,100.00
2023-09-27T04:28:55.486Z,100.00
2023-09-27T04:31:58.170Z,100.00
2023-09-27T04:35:01.237Z,100.00
2023-09-27T04:38:05.376Z,100.00
2023-09-27T04:41:09.744Z,100.00
2023-09-27T04:44:12.330Z,100.00
2023-09-27T04:47:15.792Z,100.00
2023-09-27T04:50:18.503Z,100.00
2023-09-27T04:53:21.855Z,100.00
2023-09-27T04:56:24.479Z,100.00
2023-09-27T04:59:27.447Z,100.00
2023-09-27T05:02:30.292Z,100.00
2023-09-27T05:05:33.688Z,100.00
2023-09-27T05:08:36.615Z,100.00
2023-09-27T05:11:39.560Z,100.00
2023-09-27T05:14:42.611Z,100.00
2023-09-27T05:17:45.980Z,100.00
2023-09-27T05:20:48.635Z,100.00
2023-09-27T05:23:51.657Z,100.00
2023-09-27T05:26:54.295Z,100.00
2023-09-27T05:29:58.183Z,100.00
2023-09-27T05:33:01.039Z,100.00
2023-09-27T05:36:04.153Z,100.00
2023-09-27T05:39:09.281Z,100.00
2023-09-27T05:42:12.145Z,100.00
2023-09-27T05:45:14.861Z,100.00
2023-09-27T05:48:18.183Z,100.00
2023-09-27T05:51:20.937Z,100.00
2023-09-27T05:54:23.734Z,100.00
2023-09-27T05:57:26.792Z,100.00
2023-09-27T06:00:38.807Z,100.00
2023-09-27T06:03:41.766Z,100.00
2023-09-27T06:06:44.516Z,100.00
2023-09-27T06:09:47.430Z,100.00
2023-09-27T06:12:50.059Z,100.00
2023-09-27T06:15:52.973Z,100.00
2023-09-27T06:18:56.231Z,100.00
2023-09-27T06:21:59.320Z,100.00
2023-09-27T06:25:02.244Z,100.00
2023-09-27T06:28:05.551Z,100.00
2023-09-27T06:31:08.233Z,100.00
2023-09-27T06:34:11.275Z,100.00
2023-09-27T06:37:15.123Z,100.00
2023-09-27T06:40:20.422Z,100.00
2023-09-27T06:43:23.134Z,100.00
2023-09-27T06:46:30.009Z,100.00
2023-09-27T06:49:38.348Z,100.00
2023-09-27T06:52:41.623Z,100.00
2023-09-27T06:55:48.945Z,100.00
2023-09-27T06:58:52.702Z,100.00
2023-09-27T07:01:55.398Z,100.00
2023-09-27T07:04:58.140Z,100.00
2023-09-27T07:08:01.476Z,100.00
2023-09-27T07:11:09.540Z,100.00
2023-09-27T07:14:13.551Z,100.00
2023-09-27T07:17:16.542Z,98.81
2023-09-27T07:20:34.468Z,99.74
2023-09-27T07:23:38.378Z,99.40
2023-09-27T07:26:42.602Z,98.39
2023-09-27T07:29:45.548Z,97.49
2023-09-27T07:32:48.842Z,99.21
2023-09-27T07:35:53.323Z,97.36
2023-09-27T07:38:59.030Z,95.97
2023-09-27T07:42:02.074Z,94.73
2023-09-27T07:45:06.608Z,93.32
2023-09-27T07:48:09.676Z,91.79
2023-09-27T07:51:13.400Z,91.87
2023-09-27T07:54:16.568Z,91.84
2023-09-27T07:57:19.344Z,90.59
2023-09-27T08:00:28.582Z,89.58
2023-09-27T08:03:31.645Z,87.72
2023-09-27T08:06:37.165Z,86.95
2023-09-27T08:09:41.768Z,87.13
2023-09-27T08:12:45.091Z,84.83
2023-09-27T08:15:50.438Z,84.58
2023-09-27T08:18:53.420Z,83.71
2023-09-27T08:21:59.670Z,84.28
2023-09-27T08:25:02.808Z,83.39
2023-09-27T08:28:09.920Z,83.64
2023-09-27T08:31:12.540Z,81.68
2023-09-27T08:34:15.480Z,80.69
2023-09-27T08:37:19.134Z,81.58
2023-09-27T08:40:22.814Z,80.68
2023-09-27T08:43:26.941Z,78.75
2023-09-27T08:46:30.478Z,78.83
2023-09-27T08:49:33.156Z,77.94
2023-09-27T08:52:36.017Z,77.65
2023-09-27T08:55:39.493Z,74.79
2023-09-27T08:58:42.418Z,75.65
2023-09-27T09:01:46.137Z,74.58
2023-09-27T09:04:49.091Z,73.08
2023-09-27T09:07:54.487Z,71.77
2023-09-27T09:10:57.586Z,69.64
2023-09-27T09:14:06.045Z,71.79
2023-09-27T09:17:09.358Z,71.64
2023-09-27T09:20:28.501Z,69.83
2023-09-27T09:23:33.876Z,66.38
2023-09-27T09:26:36.600Z,66.88
2023-09-27T09:29:47.171Z,63.94
2023-09-27T09:32:51.452Z,64.21
2023-09-27T09:35:55.598Z,64.03
2023-09-27T09:39:14.856Z,60.87
2023-09-27T09:42:36.688Z,60.04
2023-09-27T09:45:44.236Z,60.96
2023-09-27T09:48:47.237Z,57.88
2023-09-27T09:51:51.249Z,58.49
2023-09-27T09:55:11.782Z,59.76
2023-09-27T09:58:37.328Z,57.39
2023-09-27T10:01:41.290Z,57.41
2023-09-27T10:04:44.314Z,57.48
2023-09-27T10:07:47.928Z,58.20
2023-09-27T10:10:50.705Z,53.61
2023-09-27T10:13:53.732Z,55.29
2023-09-27T10:16:56.724Z,51.76
2023-09-27T10:20:13.870Z,49.91
2023-09-27T10:23:16.983Z,52.24
2023-09-27T10:26:28.350Z,52.38
2023-09-27T10:29:31.212Z,49.65
2023-09-27T10:32:34.458Z,50.18
2023-09-27T10:35:37.486Z,47.30
2023-09-27T10:39:00.605Z,46.80
2023-09-27T10:42:03.599Z,46.09
2023-09-27T10:45:10.011Z,44.53
2023-09-27T10:48:20.278Z,46.43
2023-09-27T10:51:26.176Z,44.47
2023-09-27T10:54:30.501Z,46.31
2023-09-27T10:57:34.565Z,41.69
2023-09-27T11:00:50.670Z,43.37
2023-09-27T11:04:00.261Z,41.27
2023-09-27T11:07:03.529Z,43.55
2023-09-27T11:10:06.653Z,43.76
2023-09-27T11:13:14.836Z,43.57
2023-09-27T11:16:19.656Z,44.18
2023-09-27T11:19:29.820Z,40.65
2023-09-27T11:22:32.383Z,40.96
2023-09-27T11:25:37.402Z,42.09
2023-09-27T11:28:40.110Z,40.63
2023-09-27T11:31:43.084Z,43.13
2023-09-27T11:34:58.125Z,41.91
2023-09-27T11:38:08.624Z,39.86
2023-09-27T11:41:15.684Z,40.32
2023-09-27T11:44:24.775Z,41.96
2023-09-27T11:47:27.555Z,41.14
2023-09-27T11:50:30.577Z,39.69
2023-09-27T11:53:33.188Z,39.31
2023-09-27T11:56:37.343Z,40.49
2023-09-27T11:59:40.289Z,39.31
2023-09-27T12:02:55.896Z,41.45
2023-09-27T12:06:00.670Z,39.21
2023-09-27T12:09:06.413Z,39.74
2023-09-27T12:12:09.763Z,43.64
2023-09-27T12:15:12.389Z,43.73
2023-09-27T12:18:15.299Z,41.16
2023-09-27T12:21:18.028Z,40.73
2023-09-27T12:24:20.911Z,40.90
2023-09-27T12:27:23.710Z,41.50
2023-09-27T12:30:28.897Z,39.75
2023-09-27T12:33:31.526Z,38.38
2023-09-27T12:36:34.501Z,40.31
2023-09-27T12:39:38.698Z,40.55
2023-09-27T12:42:41.542Z,41.26
2023-09-27T12:45:44.200Z,41.08
2023-09-27T12:48:47.226Z,42.37
2023-09-27T12:51:50.439Z,44.08
2023-09-27T12:54:53.325Z,43.53
2023-09-27T12:57:55.957Z,41.36
2023-09-27T13:00:59.116Z,43.11
2023-09-27T13:04:01.913Z,41.51
2023-09-27T13:07:04.843Z,41.94
2023-09-27T13:10:08.127Z,42.26
2023-09-27T13:13:11.344Z,41.10
2023-09-27T13:16:13.925Z,40.64
2023-09-27T13:19:16.764Z,42.96
2023-09-27T13:22:19.746Z,39.68
2023-09-27T13:25:22.695Z,39.54
2023-09-27T13:28:25.293Z,39.96
2023-09-27T13:31:34.770Z,40.09
2023-09-27T13:34:37.594Z,40.68
2023-09-27T13:37:40.433Z,41.47
2023-09-27T13:40:44.697Z,41.66
2023-09-27T13:43:48.739Z,42.94
2023-09-27T13:46:51.721Z,42.77
2023-09-27T13:49:54.749Z,43.58
2023-09-27T13:52:57.430Z,45.92
2023-09-27T13:56:00.463Z,45.92
2023-09-27T13:59:03.204Z,46.40
2023-09-27T14:02:07.737Z,47.26
2023-09-27T14:05:11.811Z,49.09
2023-09-27T14:08:17.524Z,49.32
2023-09-27T14:11:21.948Z,51.20
2023-09-27T14:14:27.783Z,50.95
2023-09-27T14:17:31.214Z,50.13
2023-09-27T14:20:33.883Z,52.15
2023-09-27T14:23:37.778Z,53.04
2023-09-27T14:26:44.069Z,51.84
2023-09-27T14:29:47.017Z,52.35
2023-09-27T14:32:49.632Z,50.64
2023-09-27T14:35:53.406Z,49.77
2023-09-27T14:38:59.110Z,52.79
2023-09-27T14:42:02.625Z,50.03
2023-09-27T14:45:16.868Z,50.49
2023-09-27T14:48:31.518Z,51.76
2023-09-27T14:51:34.740Z,50.74
2023-09-27T14:54:37.670Z,52.24
2023-09-27T14:57:42.018Z,53.27
2023-09-27T15:00:44.846Z,53.69
2023-09-27T15:03:47.654Z,52.11
2023-09-27T15:06:50.613Z,52.52
2023-09-27T15:09:53.412Z,52.83
2023-09-27T15:12:56.503Z,52.95
2023-09-27T15:15:59.222Z,54.32
2023-09-27T15:19:02.365Z,56.75
2023-09-27T15:22:05.093Z,61.02
2023-09-27T15:25:08.962Z,60.08
2023-09-27T15:28:11.549Z,61.74
2023-09-27T15:31:15.366Z,61.67
2023-09-27T15:34:18.009Z,62.01
2023-09-27T15:37:21.041Z,61.14
2023-09-27T15:40:24.655Z,62.66
2023-09-27T15:43:27.723Z,63.20
2023-09-27T15:46:30.963Z,64.10
2023-09-27T15:49:34.033Z,65.32
2023-09-27T15:52:36.805Z,66.53
2023-09-27T15:55:39.951Z,67.21
2023-09-27T15:58:42.671Z,68.04
2023-09-27T16:01:46.427Z,66.62
2023-09-27T16:04:52.794Z,67.60
2023-09-27T16:07:56.663Z,67.68
2023-09-27T16:10:59.616Z,67.54
2023-09-27T16:14:02.263Z,67.72
2023-09-27T16:17:05.403Z,68.89
2023-09-27T16:20:08.724Z,69.46
2023-09-27T16:23:12.106Z,69.45
2023-09-27T16:26:14.737Z,69.64
2023-09-27T16:29:18.210Z,69.85
2023-09-27T16:32:21.438Z,70.65
2023-09-27T16:35:24.833Z,70.98
2023-09-27T16:38:27.494Z,70.82
2023-09-27T16:41:31.766Z,70.85
2023-09-27T16:44:34.262Z,70.37
2023-09-27T16:47:37.554Z,70.02
2023-09-27T16:50:40.871Z,70.60
2023-09-27T16:53:44.087Z,71.20
2023-09-27T16:56:47.795Z,72.60
2023-09-27T16:59:50.666Z,73.86
2023-09-27T17:02:53.245Z,74.63
2023-09-27T17:05:56.240Z,75.63
2023-09-27T17:08:59.148Z,76.75
2023-09-27T17:12:05.598Z,78.12
2023-09-27T17:15:11.978Z,79.34
2023-09-27T17:18:19.231Z,79.39
2023-09-27T17:21:23.129Z,80.63
2023-09-27T17:24:26.519Z,80.02
2023-09-27T17:27:29.364Z,80.58
2023-09-27T17:30:32.897Z,80.35
2023-09-27T17:33:36.513Z,81.18
2023-09-27T17:36:39.871Z,81.61
2023-09-27T17:39:42.976Z,81.52
2023-09-27T17:42:47.697Z,83.08
2023-09-27T17:45:52.863Z,84.61
2023-09-27T17:49:00.784Z,82.86
2023-09-27T17:52:03.951Z,83.46
2023-09-27T17:55:09.692Z,83.73
2023-09-27T17:58:12.547Z,83.99
2023-09-27T18:01:15.849Z,83.69
2023-09-27T18:04:18.969Z,83.31
2023-09-27T18:07:21.772Z,83.44
2023-09-27T18:10:25.422Z,83.33
2023-09-27T18:13:28.742Z,82.46
2023-09-27T18:16:32.239Z,82.93
2023-09-27T18:19:35.229Z,82.81
2023-09-27T18:22:38.590Z,82.28
2023-09-27T18:25:44.582Z,84.86
2023-09-27T18:28:48.099Z,80.12
2023-09-27T18:31:50.928Z,79.21
2023-09-27T18:34:56.591Z,79.47
2023-09-27T18:38:01.607Z,79.82
2023-09-27T18:41:05.083Z,79.89
2023-09-27T18:44:08.411Z,79.45
2023-09-27T18:47:12.201Z,79.44
2023-09-27T18:50:15.456Z,79.28
2023-09-27T18:53:19.065Z,79.00
2023-09-27T18:56:32.200Z,79.00
2023-09-27T18:59:39.209Z,79.64
2023-09-27T19:02:42.224Z,79.96
2023-09-27T19:05:46.642Z,80.16
2023-09-27T19:08:56.195Z,80.15
2023-09-27T19:11:59.222Z,80.12
2023-09-27T19:15:02.052Z,79.57
2023-09-27T19:18:06.125Z,79.80
2023-09-27T19:21:11.628Z,79.83
2023-09-27T19:24:14.823Z,79.68
2023-09-27T19:27:19.194Z,80.21
2023-09-27T19:30:25.581Z,80.26
2023-09-27T19:33:30.247Z,80.59
2023-09-27T19:36:33.301Z,80.54
2023-09-27T19:39:36.902Z,80.74
2023-09-27T19:42:43.599Z,80.94
2023-09-27T19:45:47.069Z,81.00
2023-09-27T19:48:50.380Z,81.01
2023-09-27T19:51:53.284Z,81.41
2023-09-27T19:54:56.423Z,81.99
2023-09-27T19:57:59.308Z,82.09
2023-09-27T20:01:03.036Z,82.16
2023-09-27T20:04:06.905Z,81.75
2023-09-27T20:07:09.568Z,81.84
2023-09-27T20:10:12.944Z,82.14
2023-09-27T20:13:15.433Z,82.94
2023-09-27T20:16:18.656Z,83.00
2023-09-27T20:19:21.643Z,83.75
2023-09-27T20:22:24.660Z,84.19
2023-09-27T20:25:27.438Z,84.55
2023-09-27T20:28:30.482Z,84.64
2023-09-27T20:31:34.000Z,84.97
2023-09-27T20:34:37.267Z,85.05
2023-09-27T20:37:39.968Z,85.21
2023-09-27T20:40:42.979Z,85.16
2023-09-27T20:43:46.896Z,85.62
2023-09-27T20:46:51.081Z,85.81
2023-09-27T20:49:54.219Z,85.88
2023-09-27T20:52:57.481Z,86.00
2023-09-27T20:56:07.829Z,86.43
2023-09-27T20:59:11.163Z,86.40
2023-09-27T21:02:14.014Z,86.44
2023-09-27T21:05:17.081Z,86.70
2023-09-27T21:08:19.712Z,87.00
2023-09-27T21:11:24.736Z,86.76
2023-09-27T21:14:28.184Z,87.01
2023-09-27T21:17:31.940Z,87.51
2023-09-27T21:20:34.589Z,87.91
2023-09-27T21:23:37.535Z,88.15
2023-09-27T21:26:42.017Z,88.29
2023-09-27T21:29:44.984Z,88.68
2023-09-27T21:32:47.657Z,88.45
2023-09-27T21:35:55.140Z,88.35
2023-09-27T21:38:57.811Z,88.45
2023-09-27T21:42:00.761Z,88.68
2023-09-27T21:45:03.500Z,88.63
2023-09-27T21:48:06.618Z,88.71
2023-09-27T21:51:09.320Z,88.83
2023-09-27T21:54:12.143Z,88.97
2023-09-27T21:57:15.988Z,88.87
2023-09-27T22:00:21.423Z,88.62
2023-09-27T22:03:24.434Z,88.51
2023-09-27T22:06:27.262Z,88.89
2023-09-27T22:09:33.764Z,88.26
2023-09-27T22:12:38.078Z,88.46
2023-09-27T22:15:41.913Z,88.43
2023-09-27T22:18:50.806Z,88.12
2023-09-27T22:21:56.669Z,88.11
2023-09-27T22:24:59.231Z,88.03
2023-09-27T22:28:02.092Z,87.85
2023-09-27T22:31:12.978Z,88.06
2023-09-27T22:34:24.759Z,87.77
2023-09-27T22:37:27.814Z,87.69
2023-09-27T22:40:32.900Z,87.70
2023-09-27T22:43:38.813Z,87.58
2023-09-27T22:46:41.738Z,87.69
2023-09-27T22:49:44.530Z,87.65
2023-09-27T22:52:49.333Z,87.83
2023-09-27T22:55:59.093Z,88.05
2023-09-27T22:59:02.280Z,88.26
2023-09-27T23:02:10.501Z,88.41
2023-09-27T23:05:33.348Z,88.27
2023-09-27T23:08:39.139Z,88.34
2023-09-27T23:11:42.229Z,88.48
2023-09-27T23:15:03.916Z,88.70
2023-09-27T23:18:13.431Z,88.50
2023-09-27T23:21:25.814Z,88.71
2023-09-27T23:24:31.289Z,88.79
2023-09-27T23:27:34.138Z,89.32
2023-09-27T23:30:50.984Z,89.36
2023-09-27T23:33:53.980Z,89.94
2023-09-27T23:37:12.462Z,90.33
2023-09-27T23:40:15.814Z,90.97
2023-09-27T23:43:19.553Z,91.06
2023-09-27T23:46:22.272Z,91.51
2023-09-27T23:49:25.348Z,92.01
2023-09-27T23:52:29.605Z,92.39
2023-09-27T23:55:41.762Z,92.59
2023-09-27T23:58:45.141Z,92.87
